CYYB

North Bay Jack Garland Airport

Airport
ICAO code
CYYB
Summary
ICAO Region
NAM
ICAO Territory
Location

North Bay, Ontario,

Coordinates
46° 21' 49" N , 79° 25' 22" W
KCC
Dfb
Airport CFIT
Altimeter Temperature Error Correction
Airport GND
Aircraft Ground De/Anti Icing
Airport WX
Fog
Metar
Observation
CYYB 171900Z VRB02KT 30SM SCT050TCU SCT100 BKN280 25/15 A3010 RMK TCU3AC1CI3 SLP193 DENSITY ALT 2500FT
Station
North Bay, Ont.
Date/Time
2022-08-17 19:00:00
Wind speed
02 kts
Lowest cloud amount
scattered clouds
Temperature
25°C
Dew point
15°C
Humidity
53%
Weather condition
n/a

Description

Regional airport located in North Bay, Ontario, Canada.

Climatology

Humid Continental climate (Köppen climate classification Dfb) - Variable weather patterns and a large seasonal temperature variance. Summers are often warm and humid with frequent thunderstorms and winters can be very cold with frequent snowfall and persistent snow cover.

Runways

Designator Length Width Surface Rops
13/31 762 23 GRS No/No
18/36 1364 46 ASP Yes/Yes
8/26 3048 61 ASP Yes/Yes

Airport map

Aerial View

SKYbrary Partners:

Safety knowledge contributed by: